createdAt,value
2022-08-28T00:02:03.510Z,4.05
2022-08-28T00:04:30.367Z,4.20
2022-08-28T00:06:57.312Z,4.25
2022-08-28T00:09:24.317Z,4.78
2022-08-28T00:11:51.074Z,4.15
2022-08-28T00:14:21.204Z,5.13
2022-08-28T00:16:48.835Z,4.20
2022-08-28T00:19:16.332Z,4.38
2022-08-28T00:21:43.132Z,4.70
2022-08-28T00:24:10.270Z,4.65
2022-08-28T00:26:55.691Z,4.47
2022-08-28T00:29:22.512Z,4.38
2022-08-28T00:31:49.231Z,4.70
2022-08-28T00:34:15.920Z,3.95
2022-08-28T00:36:42.555Z,4.90
2022-08-28T00:39:09.759Z,4.80
2022-08-28T00:41:39.009Z,4.90
2022-08-28T00:44:15.792Z,4.53
2022-08-28T00:46:43.872Z,4.40
2022-08-28T00:49:11.180Z,3.75
2022-08-28T00:52:12.092Z,4.72
2022-08-28T00:54:41.848Z,3.78
2022-08-28T00:57:28.496Z,3.83
2022-08-28T00:59:55.280Z,5.22
2022-08-28T01:02:22.024Z,5.32
2022-08-28T01:04:49.798Z,5.10
2022-08-28T01:07:17.439Z,4.38
2022-08-28T01:09:49.486Z,5.00
2022-08-28T01:12:22.112Z,3.60
2022-08-28T01:14:49.717Z,4.32
2022-08-28T01:17:17.873Z,4.53
2022-08-28T01:19:46.807Z,4.57
2022-08-28T01:22:13.551Z,5.05
2022-08-28T01:24:40.711Z,4.85
2022-08-28T01:27:07.466Z,4.32
2022-08-28T01:29:34.323Z,6.00
2022-08-28T01:32:00.985Z,4.78
2022-08-28T01:34:27.739Z,5.43
2022-08-28T01:36:54.448Z,5.30
2022-08-28T01:39:22.845Z,4.65
2022-08-28T01:41:52.265Z,5.38
2022-08-28T01:44:22.534Z,5.20
2022-08-28T01:46:49.341Z,5.05
2022-08-28T01:49:16.109Z,4.18
2022-08-28T01:51:43.259Z,5.30
2022-08-28T01:54:10.315Z,4.13
2022-08-28T01:56:39.144Z,4.82
2022-08-28T01:59:07.457Z,4.38
2022-08-28T02:01:34.302Z,5.30
2022-08-28T02:04:01.334Z,4.85
2022-08-28T02:06:28.093Z,5.07
2022-08-28T02:08:55.682Z,4.15
2022-08-28T02:11:24.498Z,5.05
2022-08-28T02:13:52.217Z,5.28
2022-08-28T02:16:21.290Z,3.65
2022-08-28T02:18:49.077Z,4.80
2022-08-28T02:21:15.889Z,4.97
2022-08-28T02:23:43.572Z,4.88
2022-08-28T02:26:10.603Z,4.72
2022-08-28T02:28:37.731Z,5.32
2022-08-28T02:31:06.068Z,4.32
2022-08-28T02:33:33.895Z,4.80
2022-08-28T02:36:00.557Z,4.45
2022-08-28T02:38:27.271Z,4.40
2022-08-28T02:40:54.026Z,4.45
2022-08-28T02:43:20.684Z,5.32
2022-08-28T02:45:47.552Z,4.75
2022-08-28T02:48:17.257Z,5.18
2022-08-28T02:50:44.737Z,4.82
2022-08-28T02:53:12.088Z,4.20
2022-08-28T02:55:38.864Z,5.10
2022-08-28T02:58:06.935Z,5.65
2022-08-28T03:00:34.013Z,5.72
2022-08-28T03:03:00.829Z,3.90
2022-08-28T03:05:27.678Z,4.20
2022-08-28T03:07:55.970Z,5.25
2022-08-28T03:10:22.781Z,4.70
2022-08-28T03:12:49.809Z,4.28
2022-08-28T03:15:18.299Z,4.45
2022-08-28T03:17:45.131Z,5.15
2022-08-28T03:20:15.574Z,4.85
2022-08-28T03:23:00.950Z,4.22
2022-08-28T03:25:28.052Z,3.95
2022-08-28T03:27:55.179Z,5.00
2022-08-28T03:30:22.508Z,3.92
2022-08-28T03:32:49.428Z,4.82
2022-08-28T03:35:16.231Z,4.75
2022-08-28T03:37:43.379Z,3.85
2022-08-28T03:40:11.185Z,4.30
2022-08-28T03:42:37.905Z,4.60
2022-08-28T03:45:05.785Z,4.82
2022-08-28T03:47:32.945Z,4.57
2022-08-28T03:50:00.254Z,4.63
2022-08-28T03:52:27.170Z,4.25
2022-08-28T03:54:53.995Z,3.92
2022-08-28T03:57:22.173Z,4.68
2022-08-28T03:59:49.750Z,4.47
2022-08-28T04:02:19.359Z,3.70
2022-08-28T04:04:49.666Z,3.97
2022-08-28T04:07:17.349Z,3.83
2022-08-28T04:09:44.005Z,3.75
2022-08-28T04:12:10.821Z,3.35
2022-08-28T04:14:37.688Z,3.70
2022-08-28T04:17:05.071Z,4.07
2022-08-28T04:19:31.852Z,3.40
2022-08-28T04:21:58.593Z,3.63
2022-08-28T04:24:25.374Z,3.85
2022-08-28T04:26:52.173Z,3.78
2022-08-28T04:29:18.932Z,3.30
2022-08-28T04:31:45.787Z,3.83
2022-08-28T04:34:13.590Z,3.58
2022-08-28T04:36:40.572Z,3.80
2022-08-28T04:39:08.802Z,3.75
2022-08-28T04:41:38.885Z,3.55
2022-08-28T04:44:06.171Z,4.13
2022-08-28T04:46:33.259Z,3.22
2022-08-28T04:49:00.293Z,2.97
2022-08-28T04:51:27.536Z,4.40
2022-08-28T04:53:54.257Z,4.07
2022-08-28T04:56:21.071Z,3.42
2022-08-28T04:58:48.400Z,3.10
2022-08-28T05:01:18.966Z,3.03
2022-08-28T05:03:49.151Z,3.88
2022-08-28T05:06:16.487Z,3.50
2022-08-28T05:08:43.680Z,3.55
2022-08-28T05:11:14.808Z,3.55
2022-08-28T05:14:01.151Z,2.75
2022-08-28T05:16:27.896Z,3.17
2022-08-28T05:18:54.653Z,3.47
2022-08-28T05:21:22.391Z,2.88
2022-08-28T05:23:50.209Z,3.10
2022-08-28T05:26:18.240Z,3.22
2022-08-28T05:28:45.298Z,3.05
2022-08-28T05:31:13.285Z,3.53
2022-08-28T05:33:40.032Z,2.78
2022-08-28T05:36:07.592Z,3.25
2022-08-28T05:38:34.840Z,3.80
2022-08-28T05:41:01.692Z,3.90
2022-08-28T05:43:28.407Z,3.20
2022-08-28T05:46:02.794Z,3.05
2022-08-28T05:48:34.826Z,3.40
2022-08-28T05:51:10.311Z,3.75
2022-08-28T05:53:43.312Z,3.65
2022-08-28T05:56:11.258Z,3.28
2022-08-28T05:58:40.492Z,3.08
2022-08-28T06:01:07.973Z,3.30
2022-08-28T06:03:35.431Z,3.63
2022-08-28T06:06:02.301Z,3.00
2022-08-28T06:08:29.001Z,3.20
2022-08-28T06:10:56.572Z,3.10
2022-08-28T06:13:23.812Z,3.58
2022-08-28T06:15:50.666Z,3.30
2022-08-28T06:18:17.480Z,3.00
2022-08-28T06:20:45.359Z,3.13
2022-08-28T06:23:13.239Z,3.40
2022-08-28T06:25:40.490Z,3.42
2022-08-28T06:28:07.882Z,3.28
2022-08-28T06:30:37.213Z,3.97
2022-08-28T06:33:07.392Z,3.60
2022-08-28T06:35:34.632Z,3.30
2022-08-28T06:38:02.037Z,3.05
2022-08-28T06:40:28.666Z,3.78
2022-08-28T06:42:55.419Z,3.28
2022-08-28T06:45:22.131Z,3.22
2022-08-28T06:47:48.836Z,3.65
2022-08-28T06:50:17.631Z,3.75
2022-08-28T06:52:44.410Z,3.00
2022-08-28T06:55:11.105Z,3.33
2022-08-28T06:57:38.400Z,3.17
2022-08-28T07:00:05.718Z,3.60
2022-08-28T07:02:32.869Z,3.05
2022-08-28T07:05:00.642Z,3.45
2022-08-28T07:07:31.516Z,3.05
2022-08-28T07:09:59.216Z,2.92
2022-08-28T07:12:25.899Z,3.30
2022-08-28T07:14:53.097Z,3.05
2022-08-28T07:17:19.852Z,2.72
2022-08-28T07:19:46.672Z,2.97
2022-08-28T07:22:13.313Z,3.25
2022-08-28T07:24:40.277Z,3.40
2022-08-28T07:27:07.021Z,3.10
2022-08-28T07:29:33.762Z,2.72
2022-08-28T07:32:00.498Z,3.13
2022-08-28T07:34:27.499Z,3.22
2022-08-28T07:36:54.595Z,2.60
2022-08-28T07:39:21.325Z,2.95
2022-08-28T07:41:48.213Z,3.33
2022-08-28T07:44:34.148Z,2.65
2022-08-28T07:47:04.303Z,2.75
2022-08-28T07:49:31.627Z,2.97
2022-08-28T07:51:58.303Z,2.78
2022-08-28T07:54:25.039Z,2.15
2022-08-28T07:56:52.729Z,3.00
2022-08-28T07:59:20.420Z,3.03
2022-08-28T08:01:50.880Z,2.65
2022-08-28T08:04:18.578Z,2.80
2022-08-28T08:06:45.412Z,2.72
2022-08-28T08:09:13.391Z,2.75
2022-08-28T08:11:40.012Z,2.58
2022-08-28T08:14:07.548Z,2.90
2022-08-28T08:16:35.719Z,2.92
2022-08-28T08:19:02.537Z,2.28
2022-08-28T08:21:30.468Z,2.63
2022-08-28T08:23:57.809Z,3.17
2022-08-28T08:26:26.272Z,2.47
2022-08-28T08:28:52.891Z,2.30
2022-08-28T08:31:23.159Z,2.22
2022-08-28T08:33:51.679Z,2.67
2022-08-28T08:36:19.492Z,2.30
2022-08-28T08:38:46.378Z,2.35
2022-08-28T08:41:18.333Z,1.92
2022-08-28T08:43:50.788Z,2.13
2022-08-28T08:46:18.676Z,2.45
2022-08-28T08:48:46.198Z,2.33
2022-08-28T08:51:20.715Z,2.50
2022-08-28T08:53:52.889Z,2.60
2022-08-28T08:56:21.910Z,2.45
2022-08-28T08:58:52.672Z,2.33
2022-08-28T09:01:42.159Z,2.55
2022-08-28T09:04:15.901Z,3.13
2022-08-28T09:06:42.706Z,2.42
2022-08-28T09:09:26.579Z,2.30
2022-08-28T09:11:58.820Z,2.72
2022-08-28T09:14:27.073Z,2.13
2022-08-28T09:16:56.624Z,2.30
2022-08-28T09:19:23.282Z,2.72
2022-08-28T09:21:51.018Z,2.67
2022-08-28T09:24:25.454Z,2.50
2022-08-28T09:27:01.258Z,2.90
2022-08-28T09:29:29.910Z,2.38
2022-08-28T09:31:57.108Z,2.70
2022-08-28T09:34:26.887Z,2.65
2022-08-28T09:36:55.651Z,2.75
2022-08-28T09:39:26.984Z,2.08
2022-08-28T09:42:30.801Z,2.22
2022-08-28T09:44:57.567Z,2.45
2022-08-28T09:47:46.279Z,2.63
2022-08-28T09:50:33.945Z,2.17
2022-08-28T09:53:14.393Z,2.13
2022-08-28T09:55:40.989Z,2.47
2022-08-28T09:58:08.172Z,2.55
2022-08-28T10:00:37.344Z,2.30
2022-08-28T10:03:24.231Z,2.72
2022-08-28T10:05:53.913Z,2.88
2022-08-28T10:08:26.878Z,2.53
2022-08-28T10:11:00.994Z,2.28
2022-08-28T10:13:33.392Z,2.65
2022-08-28T10:16:14.493Z,2.55
2022-08-28T10:18:56.100Z,2.15
2022-08-28T10:21:45.673Z,2.50
2022-08-28T10:24:31.576Z,2.45
2022-08-28T10:27:03.414Z,2.50
2022-08-28T10:29:49.704Z,2.55
2022-08-28T10:32:35.063Z,2.92
2022-08-28T10:35:19.871Z,2.45
2022-08-28T10:37:55.847Z,2.88
2022-08-28T10:40:28.943Z,2.90
2022-08-28T10:43:13.999Z,3.10
2022-08-28T10:45:41.435Z,2.47
2022-08-28T10:48:11.216Z,2.60
2022-08-28T10:50:47.240Z,2.83
2022-08-28T10:53:34.146Z,2.47
2022-08-28T10:56:07.287Z,2.35
2022-08-28T10:58:35.964Z,2.15
2022-08-28T11:01:06.341Z,2.53
2022-08-28T11:03:35.646Z,2.08
2022-08-28T11:06:06.114Z,2.80
2022-08-28T11:08:34.827Z,3.10
2022-08-28T11:11:03.063Z,2.65
2022-08-28T11:13:56.098Z,2.67
2022-08-28T11:16:25.989Z,2.42
2022-08-28T11:19:02.761Z,2.70
2022-08-28T11:21:33.328Z,2.30
2022-08-28T11:24:03.740Z,2.92
2022-08-28T11:26:39.441Z,2.95
2022-08-28T11:29:07.782Z,2.22
2022-08-28T11:31:36.732Z,2.42
2022-08-28T11:34:05.746Z,3.40
2022-08-28T11:36:32.707Z,2.90
2022-08-28T11:39:01.209Z,2.55
2022-08-28T11:41:29.854Z,2.33
2022-08-28T11:44:09.550Z,2.38
2022-08-28T11:46:58.996Z,2.30
2022-08-28T11:49:31.867Z,3.17
2022-08-28T11:52:01.771Z,3.35
2022-08-28T11:54:51.831Z,2.35
2022-08-28T11:57:24.379Z,1.85
2022-08-28T11:59:50.979Z,3.80
2022-08-28T12:02:36.341Z,2.20
2022-08-28T12:05:04.495Z,2.28
2022-08-28T12:07:44.867Z,3.22
2022-08-28T12:10:20.902Z,2.42
2022-08-28T12:12:47.522Z,2.63
2022-08-28T12:15:33.649Z,3.28
2022-08-28T12:18:01.620Z,2.80
2022-08-28T12:20:31.167Z,3.08
2022-08-28T12:22:59.575Z,2.47
2022-08-28T12:25:35.480Z,2.88
2022-08-28T12:28:19.982Z,2.75
2022-08-28T12:31:10.095Z,2.92
2022-08-28T12:33:36.779Z,2.60
2022-08-28T12:36:04.587Z,2.58
2022-08-28T12:38:32.522Z,3.00
2022-08-28T12:40:59.358Z,2.67
2022-08-28T12:43:28.419Z,2.92
2022-08-28T12:45:56.982Z,3.30
2022-08-28T12:48:25.584Z,3.35
2022-08-28T12:50:58.681Z,2.95
2022-08-28T12:53:26.345Z,3.33
2022-08-28T12:55:55.630Z,2.60
2022-08-28T12:58:30.079Z,2.47
2022-08-28T13:00:58.312Z,2.78
2022-08-28T13:03:25.281Z,2.75
2022-08-28T13:05:57.193Z,3.20
2022-08-28T13:08:24.663Z,2.70
2022-08-28T13:10:51.881Z,3.15
2022-08-28T13:13:30.382Z,2.42
2022-08-28T13:16:07.518Z,2.63
2022-08-28T13:18:34.178Z,2.35
2022-08-28T13:21:13.427Z,2.60
2022-08-28T13:23:40.309Z,2.53
2022-08-28T13:26:07.628Z,2.55
2022-08-28T13:28:38.097Z,2.97
2022-08-28T13:31:05.328Z,3.17
2022-08-28T13:33:32.187Z,2.38
2022-08-28T13:36:18.779Z,2.45
2022-08-28T13:38:45.762Z,2.80
2022-08-28T13:41:12.580Z,1.98
2022-08-28T13:43:44.300Z,2.78
2022-08-28T13:46:11.012Z,3.17
2022-08-28T13:48:37.674Z,2.60
2022-08-28T13:51:07.567Z,2.30
2022-08-28T13:53:37.466Z,2.75
2022-08-28T13:56:05.182Z,2.60
2022-08-28T13:58:32.003Z,2.83
2022-08-28T14:00:59.091Z,2.67
2022-08-28T14:03:41.449Z,2.83
2022-08-28T14:06:13.020Z,3.10
2022-08-28T14:08:40.925Z,2.55
2022-08-28T14:11:07.841Z,2.78
2022-08-28T14:13:34.868Z,3.05
2022-08-28T14:16:04.399Z,2.70
2022-08-28T14:18:31.218Z,2.60
2022-08-28T14:20:57.996Z,3.10
2022-08-28T14:23:24.739Z,2.40
2022-08-28T14:25:51.611Z,2.50
2022-08-28T14:28:18.264Z,3.65
2022-08-28T14:30:46.195Z,3.15
2022-08-28T14:33:15.317Z,2.90
2022-08-28T14:35:42.400Z,2.35
2022-08-28T14:38:09.651Z,2.80
2022-08-28T14:40:38.505Z,2.80
2022-08-28T14:43:05.797Z,3.10
2022-08-28T14:45:32.595Z,3.03
2022-08-28T14:47:59.291Z,2.90
2022-08-28T14:50:25.971Z,3.40
2022-08-28T14:52:54.626Z,2.33
2022-08-28T14:55:21.492Z,2.97
2022-08-28T14:57:48.955Z,2.85
2022-08-28T15:00:18.060Z,2.95
2022-08-28T15:02:45.056Z,2.20
2022-08-28T15:05:12.142Z,2.45
2022-08-28T15:07:38.842Z,2.42
2022-08-28T15:10:05.707Z,2.38
2022-08-28T15:12:32.392Z,2.20
2022-08-28T15:14:59.160Z,2.55
2022-08-28T15:17:34.227Z,2.53
2022-08-28T15:20:01.494Z,2.83
2022-08-28T15:22:28.203Z,2.35
2022-08-28T15:24:55.727Z,2.28
2022-08-28T15:27:24.554Z,3.40
2022-08-28T15:29:52.615Z,2.42
2022-08-28T15:32:21.201Z,2.70
2022-08-28T15:34:48.160Z,2.72
2022-08-28T15:37:14.951Z,2.83
2022-08-28T15:40:00.069Z,2.30
2022-08-28T15:42:26.795Z,3.03
2022-08-28T15:44:56.550Z,2.88
2022-08-28T15:47:25.145Z,2.60
2022-08-28T15:49:56.249Z,2.28
2022-08-28T15:52:24.974Z,2.20
2022-08-28T15:54:51.631Z,2.58
2022-08-28T15:57:18.541Z,2.75
2022-08-28T15:59:49.646Z,3.00
2022-08-28T16:02:18.165Z,2.70
2022-08-28T16:04:44.930Z,2.85
2022-08-28T16:07:14.598Z,2.67
2022-08-28T16:09:41.431Z,2.83
2022-08-28T16:12:08.185Z,2.85
2022-08-28T16:14:34.873Z,2.70
2022-08-28T16:17:06.046Z,2.45
2022-08-28T16:19:41.723Z,2.83
2022-08-28T16:22:09.770Z,2.72
2022-08-28T16:24:37.114Z,3.08
2022-08-28T16:27:03.958Z,2.42
2022-08-28T16:29:36.092Z,2.85
2022-08-28T16:32:04.455Z,2.95
2022-08-28T16:34:32.997Z,3.17
2022-08-28T16:37:00.032Z,2.42
2022-08-28T16:39:27.316Z,2.80
2022-08-28T16:41:54.001Z,2.50
2022-08-28T16:44:21.365Z,2.65
2022-08-28T16:46:48.264Z,3.15
2022-08-28T16:49:15.095Z,3.15
2022-08-28T16:51:41.801Z,2.95
2022-08-28T16:54:08.551Z,3.10
2022-08-28T16:56:35.766Z,2.78
2022-08-28T16:59:02.505Z,2.50
2022-08-28T17:01:29.297Z,2.95
2022-08-28T17:03:56.065Z,2.72
2022-08-28T17:06:28.631Z,2.63
2022-08-28T17:08:57.157Z,2.58
2022-08-28T17:11:27.119Z,2.83
2022-08-28T17:13:54.527Z,2.90
2022-08-28T17:16:21.611Z,2.85
2022-08-28T17:18:52.194Z,2.58
2022-08-28T17:21:38.012Z,2.95
2022-08-28T17:24:04.812Z,3.22
2022-08-28T17:26:31.550Z,3.03
2022-08-28T17:28:58.479Z,2.65
2022-08-28T17:31:25.251Z,2.58
2022-08-28T17:33:52.006Z,2.60
2022-08-28T17:36:28.889Z,3.00
2022-08-28T17:39:01.750Z,3.15
2022-08-28T17:41:28.462Z,3.10
2022-08-28T17:43:55.232Z,2.92
2022-08-28T17:46:22.295Z,2.65
2022-08-28T17:48:54.433Z,2.85
2022-08-28T17:51:33.199Z,3.20
2022-08-28T17:54:14.382Z,2.78
2022-08-28T17:56:41.259Z,2.95
2022-08-28T17:59:07.932Z,3.05
2022-08-28T18:01:34.642Z,2.70
2022-08-28T18:04:01.394Z,3.20
2022-08-28T18:06:28.219Z,3.00
2022-08-28T18:08:54.940Z,2.90
2022-08-28T18:11:21.691Z,3.00
2022-08-28T18:13:48.349Z,2.58
2022-08-28T18:16:15.053Z,2.90
2022-08-28T18:18:42.031Z,2.75
2022-08-28T18:21:12.199Z,2.78
2022-08-28T18:23:40.010Z,2.80
2022-08-28T18:26:07.579Z,3.00
2022-08-28T18:28:34.656Z,2.75
2022-08-28T18:31:02.787Z,2.22
2022-08-28T18:33:29.853Z,2.70
2022-08-28T18:35:57.076Z,2.50
2022-08-28T18:38:27.926Z,2.85
2022-08-28T18:40:55.133Z,3.00
2022-08-28T18:43:22.653Z,2.58
2022-08-28T18:45:49.434Z,2.67
2022-08-28T18:48:16.572Z,3.10
2022-08-28T18:50:46.399Z,2.80
2022-08-28T18:53:14.445Z,2.60
2022-08-28T18:55:41.186Z,2.58
2022-08-28T18:58:07.896Z,2.80
2022-08-28T19:00:38.056Z,2.78
2022-08-28T19:03:05.651Z,2.72
2022-08-28T19:05:33.617Z,3.03
2022-08-28T19:08:00.364Z,2.70
2022-08-28T19:10:33.846Z,2.88
2022-08-28T19:13:01.839Z,2.90
2022-08-28T19:15:28.726Z,3.00
2022-08-28T19:17:55.582Z,3.08
2022-08-28T19:20:22.373Z,2.53
2022-08-28T19:22:49.271Z,2.53
2022-08-28T19:25:28.418Z,2.92
2022-08-28T19:27:59.165Z,2.65
2022-08-28T19:30:27.325Z,3.10
2022-08-28T19:32:54.580Z,2.60
2022-08-28T19:35:22.261Z,2.97
2022-08-28T19:37:51.720Z,2.67
2022-08-28T19:40:18.479Z,2.92
2022-08-28T19:42:45.250Z,3.15
2022-08-28T19:45:13.508Z,3.10
2022-08-28T19:47:40.332Z,2.55
2022-08-28T19:50:08.698Z,2.40
2022-08-28T19:52:36.571Z,3.05
2022-08-28T19:55:05.796Z,2.60
2022-08-28T19:57:32.807Z,2.92
2022-08-28T20:00:00.346Z,2.50
2022-08-28T20:02:28.667Z,2.90
2022-08-28T20:04:55.562Z,3.13
2022-08-28T20:07:22.364Z,3.05
2022-08-28T20:09:49.146Z,2.83
2022-08-28T20:12:16.222Z,2.72
2022-08-28T20:14:44.855Z,2.78
2022-08-28T20:17:11.691Z,2.63
2022-08-28T20:19:38.788Z,2.83
2022-08-28T20:22:05.588Z,2.83
2022-08-28T20:24:32.456Z,2.58
2022-08-28T20:26:59.209Z,2.70
2022-08-28T20:29:25.928Z,2.80
2022-08-28T20:31:53.047Z,3.25
2022-08-28T20:34:20.272Z,2.83
2022-08-28T20:36:47.565Z,3.28
2022-08-28T20:39:15.665Z,2.63
2022-08-28T20:41:43.092Z,2.70
